Flight Track Log - Related Links

Times and Time Zones

All times are in EST time to prevent confusion due to time zone crossing. See the AFL150 flight status page for this flight to view local times or setup timezone preferences in your user account.

Time Position Orientation Groundspeed Altitude Reporting Facility
EST Latitude Longitude Course Direction KTS MPH feet Rate Location/Type
Sun 05:47:00 56.0565 37.1496 307° West  Level Estimated
Sun 05:48:00 56.1245 36.9853 307° West  Level Estimated
Sun 05:49:00 56.1922 36.8204 306° West  Level Estimated
Sun 05:50:00 56.2596 36.6550 306° West  Level Estimated
Sun 05:51:00 56.3269 36.4889 306° West  Level Estimated
Sun 05:52:00 56.3939 36.3223 306° West  Level Estimated
Sun 05:53:00 56.4607 36.1551 306° West  Level Estimated
Sun 05:54:00 56.5273 35.9873 306° West  Level Estimated
Sun 05:55:00 56.5936 35.8189 306° West  Level Estimated
Sun 05:56:00 56.6598 35.6500 305° West  Level Estimated
Sun 05:57:00 56.7257 35.4804 305° West  Level Estimated
Sun 05:58:00 56.7913 35.3102 305° West  Level Estimated
Sun 05:59:00 56.8568 35.1395 305° West  Level Estimated
Sun 06:00:00 56.9220 34.9681 305° West  Level Estimated
Sun 06:01:00 56.9869 34.7962 305° West  Level Estimated
Sun 06:02:00 57.0516 34.6236 305° West  Level Estimated
Sun 06:03:00 57.1161 34.4505 304° West  Level Estimated
Sun 06:04:00 57.1804 34.2767 304° West  Level Estimated
Sun 06:05:00 57.2444 34.1023 304° West  Level Estimated
Sun 06:06:00 57.3073 33.9297 304° West  Level Estimated
Sun 06:07:00 57.3700 33.7564 304° West  Level Estimated
Sun 06:08:00 57.4325 33.5825 304° West  Level Estimated
Sun 06:09:00 57.4947 33.4081 304° West  Level Estimated
Sun 06:10:00 57.5567 33.2330 303° West  Level Estimated
Sun 06:11:00 57.6184 33.0574 303° West  Level Estimated
Sun 06:12:00 57.6799 32.8812 303° West  Level Estimated
Sun 06:13:00 57.7411 32.7043 303° West  Level Estimated
Sun 06:14:00 57.8021 32.5269 303° West  Level Estimated
Sun 06:15:00 57.8629 32.3488 303° West  Level Estimated
Sun 06:16:00 57.9234 32.1702 303° West  Level Estimated
Sun 06:17:00 57.9836 31.9910 302° West  Level Estimated
Sun 06:18:00 58.0436 31.8111 302° West  Level Estimated
Sun 06:19:00 58.1034 31.6307 302° West  Level Estimated
Sun 06:20:00 58.1628 31.4496 302° West  Level Estimated
Sun 06:21:00 58.2221 31.2680 302° West  Level Estimated
Sun 06:22:00 58.2811 31.0857 302° West  Level Estimated
Sun 06:23:00 58.3398 30.9028 302° West  Level Estimated
Sun 06:24:00 58.3982 30.7194 301° West  Level Estimated
Sun 06:25:00 58.4564 30.5353 301° West  Level Estimated
Sun 06:26:00 58.5143 30.3506 301° West  Level Estimated
Sun 06:27:00 58.5719 30.1653 301° West  Level Estimated
Sun 06:28:00 58.6293 29.9794 301° West  Level Estimated
Sun 06:29:00 58.6864 29.7929 301° West  Level Estimated
Sun 06:30:00 58.7433 29.6057 300° West  Level Estimated
Sun 06:31:00 58.7999 29.4180 300° West  Level Estimated
Sun 06:32:00 58.8562 29.2297 300° West  Level Estimated
Sun 06:33:00 58.9122 29.0407 300° West  Level Estimated
Sun 06:34:00 58.9679 28.8511 300° West  Level Estimated
Sun 06:35:00 59.0234 28.6609 300° West  Level Estimated
Sun 06:36:00 59.0786 28.4701 299° West  Level Estimated
Sun 06:37:00 59.1335 28.2787 299° West  Level Estimated
Sun 06:38:00 59.1881 28.0867 299° West  Level Estimated
Sun 06:39:00 59.2425 27.8940 299° West  Level Estimated
Sun 06:40:00 59.2965 27.7008 299° West  Level Estimated
Sun 06:41:00 59.3503 27.5069 299° West  Level Estimated
Sun 06:42:00 59.4038 27.3124 298° West  Level Estimated
Sun 06:43:00 59.4570 27.1173 298° West  Level Estimated
Sun 06:44:00 59.5099 26.9216 298° West  Level Estimated
Sun 06:45:00 59.5625 26.7253 298° West  Level Estimated
Sun 06:46:00 59.6148 26.5284 298° West  Level Estimated
Sun 06:47:00 59.6668 26.3308 298° West  Level Estimated
Sun 06:48:00 59.7185 26.1326 297° West  Level Estimated
Sun 06:49:00 59.7699 25.9339 297° West  Level Estimated
Sun 06:50:00 59.8210 25.7345 297° West  Level Estimated
Sun 06:51:00 59.8719 25.5345 297° West  Level Estimated
Sun 06:52:00 59.9224 25.3339 297° West  Level Estimated
Sun 06:53:00 59.9726 25.1327 297° West  Level Estimated
Sun 06:54:00 60.0225 24.9309 296° West  Level Estimated
Sun 06:55:00 60.0721 24.7284 296° West  Level Estimated
Sun 06:56:00 60.1213 24.5254 296° West  Level Estimated
Sun 06:57:00 60.1703 24.3218 296° West  Level Estimated
Sun 06:58:00 60.2190 24.1175 296° West  Level Estimated
Sun 06:59:00 60.2673 23.9126 296° West  Level Estimated
Sun 07:00:00 60.3153 23.7072 295° West  Level Estimated
Sun 07:01:00 60.3630 23.5011 295° West  Level Estimated
Sun 07:02:00 60.4104 23.2945 295° West  Level Estimated
Sun 07:03:00 60.4575 23.0872 295° West  Level Estimated
Sun 07:04:00 60.5042 22.8793 295° West  Level Estimated
Sun 07:05:00 60.5506 22.6708 294° West  Level Estimated
Sun 07:06:00 60.5967 22.4618 294° West  Level Estimated
Sun 07:07:00 60.6425 22.2521 294° West  Level Estimated
Sun 07:08:00 60.6879 22.0419 294° West  Level Estimated
Sun 07:09:00 60.7330 21.8310 294° West  Level Estimated
Sun 07:10:00 60.7778 21.6196 294° West  Level Estimated
Sun 07:11:00 60.8222 21.4076 293° West  Level Estimated
Sun 07:12:00 60.8663 21.1950 293° West  Level Estimated
Sun 07:13:00 60.9101 20.9818 293° West  Level Estimated
Sun 07:14:00 60.9535 20.7680 293° West  Level Estimated
Sun 07:15:00 60.9966 20.5536 293° West  Level Estimated
Sun 07:16:00 61.0394 20.3387 292° West  Level Estimated
Sun 07:17:00 61.0818 20.1231 292° West  Level Estimated
Sun 07:18:00 61.1239 19.9070 292° West  Level Estimated
Sun 07:19:00 61.1656 19.6904 292° West  Level Estimated
Sun 07:20:00 61.2070 19.4731 292° West  Level Estimated
Sun 07:21:00 61.2480 19.2553 291° West  Level Estimated
Sun 07:22:00 61.2886 19.0369 291° West  Level Estimated
Sun 07:23:00 61.3290 18.8180 291° West  Level Estimated
Sun 07:24:00 61.3689 18.5985 291° West  Level Estimated
Sun 07:25:00 61.4085 18.3784 291° West  Level Estimated
Sun 07:26:00 61.4478 18.1578 291° West  Level Estimated
Sun 07:27:00 61.4867 17.9366 290° West  Level Estimated
Sun 07:28:00 61.5252 17.7149 290° West  Level Estimated
Sun 07:29:00 61.5634 17.4926 290° West  Level Estimated
Sun 07:30:00 61.6012 17.2698 290° West  Level Estimated
Sun 07:31:00 61.6387 17.0464 290° West  Level Estimated
Sun 07:32:00 61.6758 16.8225 289° West  Level Estimated
Sun 07:33:00 61.7125 16.5981 289° West  Level Estimated
Sun 07:34:00 61.7489 16.3731 289° West  Level Estimated
Sun 07:35:00 61.7849 16.1476 289° West  Level Estimated
Sun 07:36:00 61.8205 15.9216 289° West  Level Estimated
Sun 07:37:00 61.8557 15.6951 288° West  Level Estimated
Sun 07:38:00 61.8906 15.4680 288° West  Level Estimated
Sun 07:39:00 61.9251 15.2404 288° West  Level Estimated
Sun 07:40:00 61.9592 15.0123 288° West  Level Estimated
Sun 07:41:00 61.9929 14.7837 288° West  Level Estimated
Sun 07:42:00 62.0263 14.5546 287° West  Level Estimated
Sun 07:43:00 62.0593 14.3250 287° West  Level Estimated
Sun 07:44:00 62.0919 14.0949 287° West  Level Estimated
Sun 07:45:00 62.1241 13.8643 287° West  Level Estimated
Sun 07:46:00 62.1559 13.6333 287° West  Level Estimated
Sun 07:47:00 62.1874 13.4017 286° West  Level Estimated
Sun 07:48:00 62.2184 13.1697 286° West  Level Estimated
Sun 07:49:00 62.2491 12.9371 286° West  Level Estimated
Sun 07:50:00 62.2794 12.7042 286° West  Level Estimated
Sun 07:51:00 62.3093 12.4707 286° West  Level Estimated
Sun 07:52:00 62.3388 12.2368 285° West  Level Estimated
Sun 07:53:00 62.3679 12.0024 285° West  Level Estimated
Sun 07:54:00 62.3966 11.7676 285° West  Level Estimated
Sun 07:55:00 62.4249 11.5323 285° West  Level Estimated
Sun 07:56:00 62.4528 11.2966 284° West  Level Estimated
Sun 07:57:00 62.4804 11.0604 284° West  Level Estimated
Sun 07:58:00 62.5075 10.8238 284° West  Level Estimated
Sun 07:59:00 62.5342 10.5868 284° West  Level Estimated
Sun 08:00:00 62.5605 10.3494 284° West  Level Estimated
Sun 08:01:00 62.5864 10.1116 283° West  Level Estimated
Sun 08:02:00 62.6119 9.8733 283° West  Level Estimated
Sun 08:03:00 62.6371 9.6346 283° West  Level Estimated
Sun 08:04:00 62.6618 9.3955 283° West  Level Estimated
Sun 08:05:00 62.6861 9.1561 283° West  Level Estimated
Sun 08:06:00 62.7099 8.9162 282° West  Level Estimated
Sun 08:07:00 62.7334 8.6760 282° West  Level Estimated
Sun 08:08:00 62.7565 8.4354 282° West  Level Estimated
Sun 08:09:00 62.7791 8.1944 282° West  Level Estimated
Sun 08:10:00 62.8013 7.9530 281° West  Level Estimated
Sun 08:11:00 62.8232 7.7113 281° West  Level Estimated
Sun 08:12:00 62.8446 7.4692 281° West  Level Estimated
Sun 08:13:00 62.8656 7.2268 281° West  Level Estimated
Sun 08:14:00 62.8862 6.9840 281° West  Level Estimated
Sun 08:15:00 62.9063 6.7409 280° West  Level Estimated
Sun 08:16:00 62.9260 6.4974 280° West  Level Estimated
Sun 08:17:00 62.9454 6.2537 280° West  Level Estimated
Sun 08:18:00 62.9643 6.0096 280° West  Level Estimated
Sun 08:19:00 62.9827 5.7652 280° West  Level Estimated
Sun 08:20:00 63.0008 5.5205 279° West  Level Estimated
Sun 08:21:00 63.0184 5.2755 279° West  Level Estimated
Sun 08:22:00 63.0356 5.0302 279° West  Level Estimated
Sun 08:23:00 63.0524 4.7846 279° West  Level Estimated
Sun 08:24:00 63.0688 4.5388 278° West  Level Estimated
Sun 08:25:00 63.0847 4.2926 278° West  Level Estimated
Sun 08:26:00 63.1002 4.0462 278° West  Level Estimated
Sun 08:27:00 63.1153 3.7996 278° West  Level Estimated
Sun 08:28:00 63.1299 3.5527 278° West  Level Estimated
Sun 08:29:00 63.1441 3.3055 277° West  Level Estimated
Sun 08:30:00 63.1579 3.0581 277° West  Level Estimated
Sun 08:31:00 63.1713 2.8105 277° West  Level Estimated
Sun 08:32:00 63.1842 2.5626 277° West  Level Estimated
Sun 08:33:00 63.1967 2.3145 276° West  Level Estimated
Sun 08:34:00 63.2088 2.0663 276° West  Level Estimated
Sun 08:35:00 63.2204 1.8178 276° West  Level Estimated
Sun 08:36:00 63.2316 1.5691 276° West  Level Estimated
Sun 08:37:00 63.2424 1.3202 276° West  Level Estimated
Sun 08:38:00 63.2527 1.0712 275° West  Level Estimated
Sun 08:39:00 63.2626 0.8220 275° West  Level Estimated
Sun 08:40:00 63.2720 0.5726 275° West  Level Estimated
Sun 08:41:00 63.2810 0.3230 275° West  Level Estimated
Sun 08:42:00 63.2896 0.0733 274° West  Level Estimated
Sun 08:43:00 63.2977 -0.1765 274° West  Level Estimated
Sun 08:44:00 63.3055 -0.4265 274° West  Level Estimated
Sun 08:45:00 63.3127 -0.6766 274° West  Level Estimated
Sun 08:46:00 63.3195 -0.9269 274° West  Level Estimated
Sun 08:47:00 63.3259 -1.1772 273° West  Level Estimated
Sun 08:48:00 63.3319 -1.4277 273° West  Level Estimated
Sun 08:49:00 63.3374 -1.6782 273° West  Level Estimated
Sun 08:50:00 63.3425 -1.9289 273° West  Level Estimated
Sun 08:51:00 63.3471 -2.1796 272° West  Level Estimated
Sun 08:52:00 63.3513 -2.4304 272° West  Level Estimated
Sun 08:53:00 63.3550 -2.6813 272° West  Level Estimated
Sun 08:54:00 63.3583 -2.9323 272° West  Level Estimated
Sun 08:55:00 63.3612 -3.1833 272° West  Level Estimated
Sun 08:56:00 63.3637 -3.4343 271° West  Level Estimated
Sun 08:57:00 63.3656 -3.6854 271° West  Level Estimated
Sun 08:58:00 63.3672 -3.9365 271° West  Level Estimated
Sun 08:59:00 63.3683 -4.1876 271° West  Level Estimated
Sun 09:00:00 63.3690 -4.4388 270° West  Level Estimated
Sun 09:01:00 63.3692 -4.6899 270° West  Level Estimated
Sun 09:02:00 63.3690 -4.9411 270° West  Level Estimated
Sun 09:03:00 63.3683 -5.1922 270° West  Level Estimated
Sun 09:04:00 63.3672 -5.4434 270° West  Level Estimated
Sun 09:05:00 63.3657 -5.6945 269° West  Level Estimated
Sun 09:06:00 63.3637 -5.9456 269° West  Level Estimated
Sun 09:07:00 63.3613 -6.1966 269° West  Level Estimated
Sun 09:08:00 63.3584 -6.4476 269° West  Level Estimated
Sun 09:09:00 63.3551 -6.6986 268° West  Level Estimated
Sun 09:10:00 63.3514 -6.9495 268° West  Level Estimated
Sun 09:11:00 63.3472 -7.2003 268° West  Level Estimated
Sun 09:12:00 63.3426 -7.4510 268° West  Level Estimated
Sun 09:13:00 63.3375 -7.7017 268° West  Level Estimated
Sun 09:14:00 63.3320 -7.9522 267° West  Level Estimated
Sun 09:15:00 63.3261 -8.2027 267° West  Level Estimated
Sun 09:16:00 63.3197 -8.4530 267° West  Level Estimated
Sun 09:17:00 63.3129 -8.7033 267° West  Level Estimated
Sun 09:18:00 63.3056 -8.9534 266° West  Level Estimated
Sun 09:19:00 63.2979 -9.2034 266° West  Level Estimated
Sun 09:20:00 63.2898 -9.4532 266° West  Level Estimated
Sun 09:21:00 63.2812 -9.7029 266° West  Level Estimated
Sun 09:22:00 63.2722 -9.9525 266° West  Level Estimated
Sun 09:23:00 63.2627 -10.2019 265° West  Level Estimated
Sun 09:24:00 63.2528 -10.4511 265° West  Level Estimated
Sun 09:25:00 63.2425 -10.7002 265° West  Level Estimated
Sun 09:26:00 63.2318 -10.9490 265° West  Level Estimated
Sun 09:27:00 63.2206 -11.1977 264° West  Level Estimated
Sun 09:28:00 63.2090 -11.4462 264° West  Level Estimated
Sun 09:29:00 63.1969 -11.6945 264° West  Level Estimated
Sun 09:30:00 63.1844 -11.9425 264° West  Level Estimated
Sun 09:31:00 63.1715 -12.1904 264° West  Level Estimated
Sun 09:32:00 63.1582 -12.4380 263° West  Level Estimated
Sun 09:33:00 63.1444 -12.6854 263° West  Level Estimated
Sun 09:34:00 63.1302 -12.9326 263° West  Level Estimated
Sun 09:35:00 63.1155 -13.1795 263° West  Level Estimated
Sun 09:36:00 63.1005 -13.4262 262° West  Level Estimated
Sun 09:37:00 63.0850 -13.6726 262° West  Level Estimated
Sun 09:38:00 63.0690 -13.9187 262° West  Level Estimated
Sun 09:39:00 63.0527 -14.1646 262° West  Level Estimated
Sun 09:40:00 63.0359 -14.4102 262° West  Level Estimated
Sun 09:41:00 63.0187 -14.6555 261° West  Level Estimated
Sun 09:42:00 63.0011 -14.9005 261° West  Level Estimated
Sun 09:43:00 62.9830 -15.1452 261° West  Level Estimated
Sun 09:44:00 62.9646 -15.3896 261° West  Level Estimated
Sun 09:45:00 62.9457 -15.6337 260° West  Level Estimated
Sun 09:46:00 62.9264 -15.8774 260° West  Level Estimated
Sun 09:47:00 62.9066 -16.1209 260° West  Level Estimated
Sun 09:48:00 62.8865 -16.3640 260° West  Level Estimated
Sun 09:49:00 62.8659 -16.6068 260° West  Level Estimated
Sun 09:50:00 62.8449 -16.8492 259° West  Level Estimated
Sun 09:51:00 62.8235 -17.0913 259° West  Level Estimated
Sun 09:52:00 62.8017 -17.3330 259° West  Level Estimated
Sun 09:53:00 62.7795 -17.5744 259° West  Level Estimated
Sun 09:54:00 62.7568 -17.8154 259° West  Level Estimated
Sun 09:55:00 62.7338 -18.0560 258° West  Level Estimated
Sun 09:56:00 62.7103 -18.2963 258° West  Level Estimated
Sun 09:57:00 62.6864 -18.5362 258° West  Level Estimated
Sun 09:58:00 62.6621 -18.7756 258° West  Level Estimated
Sun 09:59:00 62.6375 -19.0147 257° West  Level Estimated
Sun 10:00:00 62.6124 -19.2534 257° West  Level Estimated
Sun 10:01:00 62.5868 -19.4917 257° West  Level Estimated
Sun 10:02:00 62.5609 -19.7295 257° West  Level Estimated
Sun 10:03:00 62.5346 -19.9670 257° West  Level Estimated
Sun 10:04:00 62.5079 -20.2040 256° West  Level Estimated
Sun 10:05:00 62.4808 -20.4406 256° West  Level Estimated
Sun 10:06:00 62.4533 -20.6767 256° West  Level Estimated
Sun 10:07:00 62.4254 -20.9125 256° West  Level Estimated
Sun 10:08:00 62.3971 -21.1477 256° West  Level Estimated
Sun 10:09:00 62.3684 -21.3826 255° West  Level Estimated
Sun 10:10:00 62.3393 -21.6169 255° West  Level Estimated
Sun 10:11:00 62.3098 -21.8509 255° West  Level Estimated
Sun 10:12:00 62.2799 -22.0843 255° West  Level Estimated
Sun 10:13:00 62.2496 -22.3173 255° West  Level Estimated
Sun 10:14:00 62.2189 -22.5499 254° West  Level Estimated
Sun 10:15:00 62.1879 -22.7819 254° West  Level Estimated
Sun 10:16:00 62.1564 -23.0135 254° West  Level Estimated
Sun 10:17:00 62.1246 -23.2446 254° West  Level Estimated
Sun 10:18:00 62.0924 -23.4752 253° West  Level Estimated
Sun 10:19:00 62.0598 -23.7053 253° West  Level Estimated
Sun 10:20:00 62.0268 -23.9349 253° West  Level Estimated
Sun 10:21:00 61.9935 -24.1640 253° West  Level Estimated
Sun 10:22:00 61.9594 -24.3950 253° West  Level Estimated
Sun 10:23:00 61.9249 -24.6255 252° West  Level Estimated
Sun 10:24:00 61.8900 -24.8555 252° West  Level Estimated
Sun 10:25:00 61.8548 -25.0849 252° West  Level Estimated
Sun 10:26:00 61.8191 -25.3139 252° West  Level Estimated
Sun 10:27:00 61.7831 -25.5422 252° West  Level Estimated
Sun 10:28:00 61.7467 -25.7701 251° West  Level Estimated
Sun 10:29:00 61.7100 -25.9974 251° West  Level Estimated
Sun 10:30:00 61.6728 -26.2242 251° West  Level Estimated
Sun 10:31:00 61.6353 -26.4504 251° West  Level Estimated
Sun 10:32:00 61.5974 -26.6761 251° West  Level Estimated
Sun 10:33:00 61.5592 -26.9012 250° West  Level Estimated
Sun 10:34:00 61.5205 -27.1257 250° West  Level Estimated
Sun 10:35:00 61.4815 -27.3498 250° West  Level Estimated
Sun 10:36:00 61.4422 -27.5732 250° West  Level Estimated
Sun 10:37:00 61.4025 -27.7961 250° West  Level Estimated
Sun 10:38:00 61.3624 -28.0184 249° West  Level Estimated
Sun 10:39:00 61.3219 -28.2401 249° West  Level Estimated
Sun 10:40:00 61.2811 -28.4613 249° West  Level Estimated
Sun 10:41:00 61.2399 -28.6818 249° West  Level Estimated
Sun 10:42:00 61.1984 -28.9018 249° West  Level Estimated
Sun 10:43:00 61.1565 -29.1213 248° West  Level Estimated
Sun 10:44:00 61.1143 -29.3401 248° West  Level Estimated
Sun 10:45:00 61.0717 -29.5583 248° West  Level Estimated
Sun 10:46:00 61.0288 -29.7760 248° West  Level Estimated
Sun 10:47:00 60.9855 -29.9931 248° West  Level Estimated
Sun 10:48:00 60.9418 -30.2095 248° West  Level Estimated
Sun 10:49:00 60.8978 -30.4254 247° West  Level Estimated
Sun 10:50:00 60.8535 -30.6407 247° West  Level Estimated
Sun 10:51:00 60.8088 -30.8554 247° West  Level Estimated
Sun 10:52:00 60.7638 -31.0695 247° West  Level Estimated
Sun 10:53:00 60.7185 -31.2829 247° West  Level Estimated
Sun 10:54:00 60.6728 -31.4958 246° West  Level Estimated
Sun 10:55:00 60.6268 -31.7081 246° West  Level Estimated
Sun 10:56:00 60.5804 -31.9197 246° West  Level Estimated
Sun 10:57:00 60.5337 -32.1308 246° West  Level Estimated
Sun 10:58:00 60.4867 -32.3412 246° West  Level Estimated
Sun 10:59:00 60.4393 -32.5511 245° Southwest  Level Estimated
Sun 11:00:00 60.3916 -32.7603 245° Southwest  Level Estimated
Sun 11:01:00 60.3436 -32.9689 245° Southwest  Level Estimated
Sun 11:02:00 60.2953 -33.1769 245° Southwest  Level Estimated
Sun 11:03:00 60.2466 -33.3843 245° Southwest  Level Estimated
Sun 11:04:00 60.1976 -33.5910 245° Southwest  Level Estimated
Sun 11:05:00 60.1483 -33.7971 244° Southwest  Level Estimated
Sun 11:06:00 60.0987 -34.0027 244° Southwest  Level Estimated
Sun 11:07:00 60.0487 -34.2076 244° Southwest  Level Estimated
Sun 11:08:00 59.9985 -34.4118 244° Southwest  Level Estimated
Sun 11:09:00 59.9479 -34.6155 244° Southwest  Level Estimated
Sun 11:10:00 59.8970 -34.8185 244° Southwest  Level Estimated
Sun 11:11:00 59.8458 -35.0210 243° Southwest  Level Estimated
Sun 11:12:00 59.7943 -35.2227 243° Southwest  Level Estimated
Sun 11:13:00 59.7425 -35.4239 243° Southwest  Level Estimated
Sun 11:14:00 59.6903 -35.6244 243° Southwest  Level Estimated
Sun 11:15:00 59.6379 -35.8243 243° Southwest  Level Estimated
Sun 11:16:00 59.5852 -36.0236 242° Southwest  Level Estimated
Sun 11:17:00 59.5321 -36.2223 242° Southwest  Level Estimated
Sun 11:18:00 59.4788 -36.4203 242° Southwest  Level Estimated
Sun 11:19:00 59.4252 -36.6177 242° Southwest  Level Estimated
Sun 11:20:00 59.3713 -36.8145 242° Southwest  Level Estimated
Sun 11:21:00 59.3170 -37.0107 242° Southwest  Level Estimated
Sun 11:22:00 59.2625 -37.2062 241° Southwest  Level Estimated
Sun 11:23:00 59.2077 -37.4011 241° Southwest  Level Estimated
Sun 11:24:00 59.1526 -37.5954 241° Southwest  Level Estimated
Sun 11:25:00 59.0972 -37.7891 241° Southwest  Level Estimated
Sun 11:26:00 59.0415 -37.9821 241° Southwest  Level Estimated
Sun 11:27:00 58.9856 -38.1745 241° Southwest  Level Estimated
Sun 11:28:00 58.9293 -38.3662 240° Southwest  Level Estimated
Sun 11:29:00 58.8728 -38.5574 240° Southwest  Level Estimated
Sun 11:30:00 58.8160 -38.7479 240° Southwest  Level Estimated
Sun 11:31:00 58.7589 -38.9378 240° Southwest  Level Estimated
Sun 11:32:00 58.7015 -39.1271 240° Southwest  Level Estimated
Sun 11:33:00 58.6439 -39.3157 240° Southwest  Level Estimated
Sun 11:34:00 58.5859 -39.5038 239° Southwest  Level Estimated
Sun 11:35:00 58.5277 -39.6912 239° Southwest  Level Estimated
Sun 11:36:00 58.4693 -39.8779 239° Southwest  Level Estimated
Sun 11:37:00 58.4105 -40.0641 239° Southwest  Level Estimated
Sun 11:38:00 58.3515 -40.2496 239° Southwest  Level Estimated
Sun 11:39:00 58.2922 -40.4346 239° Southwest  Level Estimated
Sun 11:40:00 58.2327 -40.6189 239° Southwest  Level Estimated
Sun 11:41:00 58.1729 -40.8026 238° Southwest  Level Estimated
Sun 11:42:00 58.1128 -40.9856 238° Southwest  Level Estimated
Sun 11:43:00 58.0525 -41.1680 238° Southwest  Level Estimated
Sun 11:44:00 57.9919 -41.3499 238° Southwest  Level Estimated
Sun 11:45:00 57.9310 -41.5311 238° Southwest  Level Estimated
Sun 11:46:00 57.8699 -41.7117 238° Southwest  Level Estimated
Sun 11:47:00 57.8086 -41.8917 237° Southwest  Level Estimated
Sun 11:48:00 57.7470 -42.0710 237° Southwest  Level Estimated
Sun 11:49:00 57.6851 -42.2498 237° Southwest  Level Estimated
Sun 11:50:00 57.6230 -42.4280 237° Southwest  Level Estimated
Sun 11:51:00 57.5606 -42.6055 237° Southwest  Level Estimated
Sun 11:52:00 57.4980 -42.7824 237° Southwest  Level Estimated
Sun 11:53:00 57.4351 -42.9587 237° Southwest  Level Estimated
Sun 11:54:00 57.3720 -43.1345 236° Southwest  Level Estimated
Sun 11:55:00 57.3087 -43.3096 236° Southwest  Level Estimated
Sun 11:56:00 57.2451 -43.4841 236° Southwest  Level Estimated
Sun 11:57:00 57.1812 -43.6580 236° Southwest  Level Estimated
Sun 11:58:00 57.1171 -43.8313 236° Southwest  Level Estimated
Sun 11:59:00 57.0528 -44.0040 236° Southwest  Level Estimated
Sun 12:00:00 56.9883 -44.1761 236° Southwest  Level Estimated
Sun 12:01:00 56.9235 -44.3476 235° Southwest  Level Estimated
Sun 12:02:00 56.8585 -44.5186 235° Southwest  Level Estimated
Sun 12:03:00 56.7932 -44.6889 235° Southwest  Level Estimated
Sun 12:04:00 56.7266 -44.8616 235° Southwest  Level Estimated
Sun 12:05:00 56.6597 -45.0337 235° Southwest  Level Estimated
Sun 12:06:00 56.5926 -45.2052 235° Southwest  Level Estimated
Sun 12:07:00 56.5253 -45.3760 234° Southwest  Level Estimated
Sun 12:08:00 56.4577 -45.5462 234° Southwest  Level Estimated
Sun 12:09:00 56.3899 -45.7159 234° Southwest  Level Estimated
Sun 12:10:00 56.3219 -45.8849 234° Southwest  Level Estimated
Sun 12:11:00 56.2536 -46.0534 234° Southwest  Level Estimated
Sun 12:11:24 59.3500 -57.0000 233° Southwest 440 506 39,000  Level Gander Center
Sun 12:12:00 56.1851 -46.2212 234° Southwest  Level Estimated
Sun 12:12:24 59.2667 -57.1833 228° Southwest 440 506 39,000  Level Gander Center
Sun 12:13:00 56.1164 -46.3884 234° Southwest  Level Estimated
Sun 12:13:25 59.2000 -57.3500 232° Southwest 440 506 39,000  Level Gander Center
Sun 12:14:00 56.0475 -46.5551 234° Southwest  Level Estimated
Sun 12:14:24 59.1167 -57.5167 226° Southwest 440 506 39,000  Level Gander Center
Sun 12:15:00 55.9783 -46.7211 233° Southwest  Level Estimated
Sun 12:15:24 59.0333 -57.7167 231° Southwest 440 506 39,000  Level Gander Center
Sun 12:16:00 55.9089 -46.8866 233° Southwest  Level Estimated
Sun 12:16:24 58.9500 -57.8667 223° Southwest 430 495 39,000  Level Gander Center
Sun 12:17:00 55.8394 -47.0512 233° Southwest  Level Estimated
Sun 12:17:25 58.8500 -58.0000 215° Southwest 440 506 39,000  Level Gander Center
Sun 12:18:24 58.7333 -58.1000 204° Southwest 440 506 39,000  Level Gander Center
Sun 12:19:24 58.6333 -58.2333 215° Southwest 440 506 39,000  Level Gander Center
Sun 12:20:25 58.5333 -58.3833 218° Southwest 440 506 39,000  Level Gander Center
Sun 12:21:25 58.4167 -58.4833 204° Southwest 440 506 39,000  Level Gander Center
Sun 12:22:25 58.3333 -58.6167 220° Southwest 440 506 39,000  Level Gander Center
Sun 12:23:24 58.2333 -58.7500 215° Southwest 430 495 39,000  Level Gander Center
Sun 12:24:25 58.1333 -58.8500 208° Southwest 430 495 39,000  Level Gander Center
Sun 12:25:25 58.0333 -58.9833 215° Southwest 430 495 39,000  Level Gander Center
Sun 12:26:25 57.9167 -59.0833 204° Southwest 430 495 39,000  Level Gander Center
Sun 12:27:25 57.8167 -59.2167 215° Southwest 440 506 39,000  Level Gander Center
Sun 12:28:25 57.7000 -59.3500 211° Southwest 440 506 39,000  Level Gander Center
Sun 12:29:24 57.6000 -59.4500 208° Southwest 440 506 39,000  Level Gander Center
Sun 12:30:24 57.5167 -59.5667 217° Southwest 430 495 39,000  Level Gander Center
Sun 12:31:24 57.4167 -59.6667 208° Southwest 430 495 39,000  Level Gander Center
Sun 12:32:24 57.3167 -59.8000 216° Southwest 420 483 39,000  Level Gander Center
Sun 12:33:25 57.2000 -59.9000 205° Southwest 420 483 39,000  Level Gander Center
Sun 12:34:25 57.1167 -60.0167 217° Southwest 420 483 39,000  Level Gander Center
Sun 12:35:25 57.0000 -60.1500 212° Southwest 420 483 39,000  Level Gander Center
Sun 12:36:25 56.9167 -60.2500 213° Southwest 420 483 39,000  Level Gander Center
Sun 12:37:24 56.8000 -60.3667 209° Southwest 420 483 39,000  Level Gander Center
Sun 12:38:25 56.7000 -60.4667 209° Southwest 420 483 39,000  Level Gander Center
Sun 12:39:25 56.6000 -60.5500 205° Southwest 410 472 39,000  Level Gander Center
Sun 12:40:24 56.5000 -60.6833 216° Southwest 420 483 39,000  Level Gander Center
Sun 12:41:24 56.4000 -60.7667 205° Southwest 420 483 39,000  Level Gander Center
Sun 12:42:24 56.3000 -60.8833 213° Southwest 410 472 39,000  Level Gander Center
Sun 12:43:25 56.2167 -60.9833 214° Southwest 410 472 39,000  Level Gander Center
Sun 12:44:25 56.1000 -61.0667 202° Southwest 410 472 39,000  Level Gander Center
Sun 12:45:25 56.0167 -61.2000 222° Southwest 410 472 39,000  Level Gander Center
Sun 12:46:25 55.9000 -61.2833 202° Southwest 410 472 39,000  Level Gander Center
Sun 12:47:25 55.8167 -61.4000 218° Southwest 410 472 39,000  Level Gander Center
Sun 12:48:25 55.7167 -61.4833 205° Southwest 410 472 39,000  Level Gander Center
Sun 12:49:25 55.6167 -61.5833 209° Southwest 410 472 39,000  Level Gander Center
Sun 12:50:25 55.5167 -61.7000 213° Southwest 410 472 39,000  Level Gander Center
Sun 12:51:25 55.4167 -61.7833 205° Southwest 400 460 39,000  Level Gander Center
Sun 12:52:24 55.3333 -61.8667 210° Southwest 390 449 39,000  Level Gander Center
Sun 12:53:25 55.2333 -61.9833 214° Southwest 400 460 39,000  Level Gander Center
Sun 12:54:25 55.1333 -62.0667 205° Southwest 400 460 39,000  Level Gander Center
Sun 12:55:25 55.0333 -62.1500 206° Southwest 390 449 39,000  Level Gander Center
Sun 12:56:25 54.9500 -62.2500 215° Southwest 390 449 39,000  Level Gander Center
Sun 12:57:25 54.8500 -62.3500 210° Southwest 400 460 39,000  Level Gander Center
Sun 12:58:25 54.7500 -62.4333 206° Southwest 400 460 39,000  Level Gander Center
Sun 12:59:25 54.6667 -62.5167 210° Southwest 390 449 39,000  Level Gander Center
Sun 13:00:25 54.5667 -62.6000 206° Southwest 390 449 39,000  Level Gander Center
Sun 13:01:25 54.4500 -62.6833 203° Southwest 380 437 39,000  Level Gander Center
Sun 13:02:25 54.3667 -62.8000 219° Southwest 390 449 39,000  Level Gander Center
Sun 13:03:25 54.2667 -62.8833 206° Southwest 380 437 39,000  Level Gander Center
Sun 13:04:25 54.1833 -62.9667 210° Southwest 380 437 39,000  Level Gander Center
Sun 13:05:25 54.1000 -63.0500 210° Southwest 370 426 39,000  Level Gander Center
Sun 13:06:25 54.0000 -63.1333 206° Southwest 370 426 39,000  Level Gander Center
Sun 13:07:25 53.9167 -63.2167 211° Southwest 370 426 39,000  Level Gander Center
Sun 13:08:25 53.8333 -63.3000 211° Southwest 360 414 39,000  Level Gander Center
Sun 13:09:25 53.7333 -63.3667 202° Southwest 360 414 39,000  Level Gander Center
Sun 13:10:25 53.6667 -63.4500 217° Southwest 350 403 39,000  Level Gander Center
Sun 13:11:25 53.5667 -63.5333 206° Southwest 350 403 39,000  Level Gander Center
Sun 13:12:25 53.4667 -63.6167 206° Southwest 360 414 39,000  Level Gander Center
Sun 13:13:25 53.3833 -63.7000 211° Southwest 360 414 39,000  Level Gander Center
Sun 13:14:25 53.3000 -63.7500 200° South 350 403 39,000  Level Gander Center
Sun 13:15:25 53.2167 -63.8500 216° Southwest 350 403 39,000  Level Gander Center
Sun 13:16:25 53.1333 -63.9000 200° South 340 391 39,000  Level Gander Center
Sun 13:17:25 53.0500 -63.9833 211° Southwest 330 380 39,000  Level Gander Center
Sun 13:18:25 52.9667 -64.0500 206° Southwest 340 391 39,000  Level Gander Center
Sun 13:19:25 52.9000 -64.1167 211° Southwest 330 380 39,000  Level Gander Center
Sun 13:20:25 52.8167 -64.1833 206° Southwest 320 368 39,000  Level Gander Center
Sun 13:21:25 52.7167 -64.2667 207° Southwest 320 368 39,000  Level Gander Center
Sun 13:22:25 52.6500 -64.3500 217° Southwest 320 368 39,000  Level Gander Center
Sun 13:23:25 52.5667 -64.3833 194° South 320 368 39,000  Level Gander Center
Sun 13:24:25 52.5000 -64.4667 217° Southwest 320 368 39,000  Level Gander Center
Sun 13:25:25 52.4167 -64.5167 200° South 320 368 39,000  Level Gander Center
Sun 13:26:25 52.3333 -64.6000 211° Southwest 320 368 39,000  Level Gander Center
Sun 13:27:25 52.2667 -64.6667 211° Southwest 320 368 39,000  Level Gander Center
Sun 13:28:25 52.1833 -64.7167 200° South 320 368 39,000  Level Gander Center
Sun 13:29:14 52.1167 -64.7833 212° Southwest 320 368 39,000  Level Moncton Center
Sun 13:30:14 52.0333 -64.8333 200° South 310 357 39,000  Level Moncton Center
Sun 13:31:14 51.9500 -64.9167 212° Southwest 310 357 39,000  Level Moncton Center
Sun 13:32:14 51.8833 -64.9667 205° Southwest 310 357 39,000  Level Moncton Center
Sun 13:33:14 51.8167 -65.0167 205° Southwest 310 357 39,000  Level Moncton Center
Sun 13:34:14 51.7333 -65.1000 212° Southwest 310 357 39,000  Level Moncton Center
Sun 13:35:14 51.6500 -65.1500 200° South 300 345 39,000  Level Moncton Center
Sun 13:36:14 51.5833 -65.2000 205° Southwest 300 345 39,000  Level Moncton Center
Sun 13:37:14 51.5167 -65.2833 218° Southwest 300 345 39,000  Level Moncton Center
Sun 13:38:14 51.4333 -65.3333 201° Southwest 300 345 39,000  Level Moncton Center
Sun 13:39:14 51.3667 -65.3833 205° Southwest 300 345 39,000  Level Moncton Center
Sun 13:40:14 51.2833 -65.4667 212° Southwest 300 345 39,000  Level Moncton Center
Sun 13:41:14 51.2167 -65.5167 205° Southwest 300 345 39,000  Level Moncton Center
Sun 13:42:14 51.1333 -65.5667 201° Southwest 300 345 39,000  Level Moncton Center
Sun 13:43:14 51.0333 -65.6500 208° Southwest 300 345 39,000  Level Moncton Center
Sun 13:44:14 50.9667 -65.7000 205° Southwest 300 345 39,000  Level Moncton Center
Sun 13:45:14 50.8833 -65.7500 201° Southwest 310 357 39,000  Level Moncton Center
Sun 13:46:14 50.8167 -65.8333 218° Southwest 310 357 39,000  Level Moncton Center
Sun 13:47:14 50.7333 -65.8833 201° Southwest 310 357 39,000  Level Moncton Center
Sun 13:48:14 50.6667 -65.9333 205° Southwest 310 357 39,000  Level Moncton Center
Sun 13:49:14 50.5833 -66.0000 207° Southwest 310 357 39,000  Level Moncton Center
Sun 13:50:14 50.5000 -66.0500 201° Southwest 310 357 39,000  Level Moncton Center
Sun 13:51:14 50.4333 -66.1000 206° Southwest 310 357 39,000  Level Moncton Center
Sun 13:52:14 50.3500 -66.1833 213° Southwest 310 357 39,000  Level Moncton Center
Sun 13:53:14 50.2833 -66.2333 206° Southwest 310 357 39,000  Level Moncton Center
Sun 13:54:14 50.2000 -66.2833 201° Southwest 310 357 39,000  Level Moncton Center
Sun 13:55:14 50.1167 -66.3333 201° Southwest 320 368 39,000  Level Moncton Center
Sun 13:56:14 50.0333 -66.3833 201° Southwest 320 368 39,000  Level Moncton Center
Sun 13:57:14 49.9500 -66.4333 201° Southwest 320 368 39,000  Level Moncton Center
Sun 13:58:14 49.8500 -66.4667 192° South 320 368 39,000  Level Moncton Center
Sun 13:59:14 49.7667 -66.5167 201° Southwest 320 368 39,000  Level Moncton Center
Sun 14:00:14 49.6833 -66.5667 201° Southwest 320 368 39,000  Level Moncton Center
Sun 14:01:14 49.6000 -66.6167 201° Southwest 330 380 39,000  Level Moncton Center
Sun 14:02:14 49.5167 -66.6667 201° Southwest 330 380 39,000  Level Moncton Center
Sun 14:03:14 49.4333 -66.7167 201° Southwest 330 380 39,000  Level Moncton Center
Sun 14:04:14 49.3500 -66.7667 201° Southwest 330 380 39,000  Level Moncton Center
Sun 14:05:14 49.2667 -66.8167 201° Southwest 330 380 39,000  Level Moncton Center
Sun 14:06:14 49.1833 -66.8500 195° South 330 380 39,000  Level Moncton Center
Sun 14:07:14 49.0833 -66.9000 198° South 330 380 39,000  Level Moncton Center
Sun 14:08:14 49.0000 -66.9500 201° Southwest 330 380 39,000  Level Moncton Center
Sun 14:09:14 48.9167 -67.0000 202° Southwest 330 380 39,000  Level Moncton Center
Sun 14:10:14 48.8167 -67.0500 198° South 330 380 39,000  Level Moncton Center
Sun 14:11:14 48.7333 -67.0833 195° South 340 391 39,000 -50 Level Moncton Center
Sun 14:12:14 48.6333 -67.1333 198° South 340 391 38,900  Descending Moncton Center
Sun 14:13:14 48.5500 -67.1833 202° Southwest 340 391 39,000 14 Climbing Moncton Center
Sun 14:19:22 48.0133 -67.4723 202° Southwest 348 400 39,000  Level FlightAware ADS-B
Sun 14:19:59 47.9672 -67.4931 202° Southwest 346 398 39,000  Level Boston Center
Sun 14:25:59 47.3944 -67.7870 202° Southwest 354 407 39,000  Level FlightAware ADS-B
Sun 14:27:04 47.3150 -67.8275 202° Southwest 356 410 39,000  Level Boston Center
Sun 14:28:05 47.2025 -67.8822 198° South 357 411 39,000  Level Boston Center
Sun 14:29:05 47.1097 -67.9303 199° South 352 405 39,000  Level Boston Center
Sun 14:34:51 46.5641 -68.1823 199° South 363 418 39,000  Level FlightAware ADS-B
Sun 14:35:28 46.5064 -68.2063 196° South 365 420 39,000  Level FlightAware ADS-B
Sun 14:36:09 46.4370 -68.2349 196° South 364 419 39,000  Level FlightAware ADS-B
Sun 14:36:44 46.3808 -68.2581 196° South 364 419 39,000  Level FlightAware ADS-B
Sun 14:37:23 46.3254 -68.2810 196° South 366 421 39,000  Level FlightAware ADS-B
Sun 14:38:43 46.1868 -68.3378 196° South 369 425 39,000  Level FlightAware ADS-B
Sun 14:39:15 46.1348 -68.3589 196° South 370 426 39,000  Level FlightAware ADS-B
Sun 14:39:55 46.0684 -68.3860 196° South 371 427 39,000  Level FlightAware ADS-B
Sun 14:40:45 45.9880 -68.4186 196° South 372 428 39,000  Level FlightAware ADS-B
Sun 14:41:26 45.9178 -68.4471 196° South 373 429 39,000  Level FlightAware ADS-B
Sun 14:41:58 45.8671 -68.4676 196° South 374 430 39,000  Level FlightAware ADS-B
Sun 14:42:38 45.7976 -68.4956 196° South 375 432 39,000  Level FlightAware ADS-B
Sun 14:43:19 45.7525 -68.5138 196° South 375 432 39,000  Level FlightAware ADS-B (EHTW / ENS)
Sun 14:43:52 45.6785 -68.5436 196° South 376 433 39,000  Level FlightAware ADS-B
Sun 14:44:42 45.5934 -68.5776 196° South 374 430 39,000  Level FlightAware ADS-B (EHTW / ENS)
Sun 14:45:22 45.5321 -68.6021 196° South 370 426 39,000  Level FlightAware ADS-B (EHTW / ENS)
Sun 14:46:01 45.4620 -68.6300 196° South 368 423 39,000  Level FlightAware ADS-B
Sun 14:46:41 45.3988 -68.6553 196° South 367 422 39,000  Level FlightAware ADS-B
Sun 14:47:19 45.3336 -68.6810 196° South 366 421 39,000  Level FlightAware ADS-B
Sun 14:47:58 45.2718 -68.7054 196° South 367 422 39,000  Level FlightAware ADS-B
Sun 14:48:36 45.2094 -68.7300 196° South 368 423 39,000  Level FlightAware ADS-B
Sun 14:49:15 45.1495 -68.7537 196° South 370 426 39,000  Level FlightAware ADS-B
Sun 14:49:48 45.0905 -68.7769 195° South 370 426 39,000  Level FlightAware ADS-B
Sun 14:50:22 45.0402 -68.7966 195° South 372 428 39,000  Level FlightAware ADS-B (EHTW / ENS)
Sun 14:51:04 44.9649 -68.8261 196° South 372 428 39,000  Level FlightAware ADS-B (EHTW / ENS)
Sun 14:51:34 44.9147 -68.8458 195° South 377 434 39,000  Level FlightAware ADS-B
Sun 14:52:04 44.8700 -68.8633 196° South 378 435 39,000  Level FlightAware ADS-B (EHTW / ENS)
Sun 14:52:39 44.8083 -68.8961 201° Southwest 361 415 39,000  Level FlightAware ADS-B
Sun 14:53:20 44.7487 -68.9377 206° Southwest 361 415 39,000  Level FlightAware ADS-B
Sun 14:53:53 44.7016 -68.9699 206° Southwest 361 415 39,000  Level FlightAware ADS-B
Sun 14:54:32 44.6393 -69.0123 206° Southwest 361 415 39,000  Level FlightAware ADS-B
Sun 14:55:05 44.5898 -69.0460 206° Southwest 361 415 39,000  Level FlightAware ADS-B
Sun 14:55:43 44.5327 -69.0846 206° Southwest 361 415 39,000  Level FlightAware ADS-B (EHTW / ENS)
Sun 14:56:13 44.4952 -69.1100 206° Southwest 362 417 39,000  Level FlightAware ADS-B
Sun 14:56:43 44.4478 -69.1421 206° Southwest 360 414 39,000  Level FlightAware ADS-B (EHTW / ENS)
Sun 14:57:13 44.3988 -69.1750 206° Southwest 357 411 39,000  Level FlightAware ADS-B
Sun 14:57:43 44.3542 -69.2053 206° Southwest 366 421 39,000  Level FlightAware ADS-B (EHTW / ENS)
Sun 14:58:24 44.2911 -69.2478 206° Southwest 366 421 39,000  Level FlightAware ADS-B (EHTW / ENS)
Sun 14:59:04 44.2310 -69.2878 205° Southwest 359 413 39,000  Level FlightAware ADS-B (EHTW / ENS)
Sun 14:59:37 44.1711 -69.3277 206° Southwest 359 413 39,000  Level FlightAware ADS-B (EGHI / SOU)
Sun 15:00:20 44.1166 -69.3643 206° Southwest 362 417 39,000  Level FlightAware ADS-B (EHTW / ENS)
Sun 15:00:50 44.0603 -69.4020 206° Southwest 367 422 39,000  Level FlightAware ADS-B (EGHI / SOU)
Sun 15:01:25 44.0175 -69.4305 205° Southwest 357 411 39,000  Level FlightAware ADS-B
Sun 15:01:45 43.9866 -69.4507 205° Southwest 359 413 39,000  Level FlightAware ADS-B
Sun 15:02:22 43.9311 -69.4876 206° Southwest 368 423 39,000  Level FlightAware ADS-B (EHTW / ENS)
Sun 15:03:04 43.8665 -69.5301 205° Southwest 368 423 39,000  Level FlightAware ADS-B (EHTW / ENS)
Sun 15:03:49 43.7962 -69.5765 205° Southwest 370 426 39,000  Level FlightAware ADS-B
Sun 15:04:25 43.7422 -69.6120 205° Southwest 356 410 39,000  Level FlightAware ADS-B
Sun 15:05:05 43.6807 -69.6526 206° Southwest 363 418 39,000  Level FlightAware ADS-B
Sun 15:05:35 43.6421 -69.6779 205° Southwest 374 430 39,000  Level FlightAware ADS-B
Sun 15:06:15 43.5726 -69.7235 205° Southwest 375 432 39,000  Level FlightAware ADS-B
Sun 15:06:45 43.5238 -69.7552 205° Southwest 372 428 39,000  Level FlightAware ADS-B
Sun 15:07:16 43.4804 -69.7835 205° Southwest 372 428 39,000  Level FlightAware ADS-B
Sun 15:07:46 43.4298 -69.8137 203° Southwest 375 432 39,000  Level FlightAware ADS-B
Sun 15:08:17 43.3957 -69.8284 197° South 395 455 39,000  Level FlightAware ADS-B
Sun 15:09:00 43.2975 -69.8512 190° South 409 471 39,000  Level FlightAware ADS-B
Sun 15:09:42 43.2217 -69.8637 187° South 412 474 39,000  Level FlightAware ADS-B
Sun 15:10:22 43.1401 -69.8762 186° South 413 475 39,000  Level FlightAware ADS-B
Sun 15:11:04 43.0602 -69.8879 186° South 405 466 39,000  Level FlightAware ADS-B
Sun 15:11:46 42.9806 -69.8994 186° South 403 464 39,000  Level FlightAware ADS-B
Sun 15:12:20 42.9213 -69.9080 186° South 410 472 39,000  Level FlightAware ADS-B (ESTA / AGH)
Sun 15:12:52 42.8560 -69.9175 186° South 412 474 39,000  Level FlightAware ADS-B
Sun 15:13:32 42.7838 -69.9279 186° South 414 476 39,000  Level FlightAware ADS-B
Sun 15:14:12 42.7039 -69.9393 186° South 415 478 39,000  Level FlightAware ADS-B
Sun 15:14:54 42.6262 -69.9506 186° South 415 478 39,000  Level FlightAware ADS-B
Sun 15:15:29 42.5577 -69.9604 186° South 415 478 39,000  Level FlightAware ADS-B
Sun 15:16:04 42.4904 -69.9699 186° South 416 479 39,000  Level FlightAware ADS-B (ESTA / AGH)
Sun 15:16:34 42.4329 -69.9782 186° South 416 479 39,000  Level FlightAware ADS-B
Sun 15:17:17 42.3522 -69.9898 186° South 408 470 39,000  Level FlightAware ADS-B
Sun 15:17:53 42.2815 -69.9998 186° South 409 471 39,000  Level FlightAware ADS-B
Sun 15:18:29 42.2140 -70.0094 186° South 413 475 39,000  Level FlightAware ADS-B
Sun 15:19:03 42.1485 -70.0215 188° South 403 464 39,000  Level FlightAware ADS-B
Sun 15:19:37 42.0898 -70.0432 195° South 392 451 39,000  Level FlightAware ADS-B
Sun 15:20:08 42.0429 -70.0690 202° Southwest 386 444 39,000  Level FlightAware ADS-B
Sun 15:20:40 41.9886 -70.1097 209° Southwest 380 437 39,000  Level FlightAware ADS-B (ESTA / AGH)
Sun 15:21:15 41.9405 -70.1581 217° Southwest 368 423 39,000  Level FlightAware ADS-B
Sun 15:21:25 41.9276 -70.1734 222° Southwest 372 428 39,000  Level FlightAware ADS-B
Sun 15:21:35 41.9155 -70.1890 224° Southwest 366 421 39,000  Level FlightAware ADS-B
Sun 15:22:08 41.8780 -70.2430 227° Southwest 367 422 39,000  Level FlightAware ADS-B
Sun 15:22:48 41.8319 -70.3096 227° Southwest 365 420 39,000  Level FlightAware ADS-B
Sun 15:23:21 41.7942 -70.3645 227° Southwest 370 426 39,000  Level FlightAware ADS-B
Sun 15:23:54 41.7547 -70.4221 227° Southwest 369 425 39,000  Level FlightAware ADS-B
Sun 15:24:29 41.7141 -70.4811 227° Southwest 377 434 39,000 -277 Level FlightAware ADS-B
Sun 15:24:59 41.6781 -70.5333 227° Southwest 379 436 38,700 -537 Descending FlightAware ADS-B
Sun 15:25:36 41.6340 -70.5971 227° Southwest 378 435 38,400 -537 Descending FlightAware ADS-B (ESTA / AGH)
Sun 15:26:06 41.5995 -70.6470 227° Southwest 375 432 38,100 -329 Descending FlightAware ADS-B (KBKF)
Sun 15:26:49 41.5505 -70.7176 227° Southwest 370 426 38,000 -82 Descending FlightAware ADS-B (ESTA / AGH)
Sun 15:27:19 41.5138 -70.7704 227° Southwest 365 420 38,000  Level FlightAware ADS-B
Sun 15:27:58 41.4682 -70.8359 227° Southwest 367 422 38,000  Level FlightAware ADS-B
Sun 15:28:39 41.4202 -70.9047 227° Southwest 367 422 38,000  Level FlightAware ADS-B
Sun 15:29:09 41.4189 -70.9065 226° Southwest 372 428 38,000  Level FlightAware ADS-B (KOWD)
Sun 15:29:59 41.3259 -71.0395 227° Southwest 368 423 38,000  Level FlightAware ADS-B
Sun 15:30:39 41.2808 -71.1072 228° Southwest 369 425 38,000  Level FlightAware ADS-B
Sun 15:30:44 41.2817 -71.1056 53° Northeast 369 425 38,000  Level FlightAware ADS-B
Sun 15:31:19 41.2447 -71.1829 238° Southwest 362 417 38,000  Level FlightAware ADS-B
Sun 15:31:40 41.2299 -71.2263 246° West 365 420 38,000  Level FlightAware ADS-B (KBKF)
Sun 15:32:19 41.2072 -71.3078 250° West 365 420 38,000  Level FlightAware ADS-B
Sun 15:32:49 41.1959 -71.3480 249° West 364 419 38,000  Level FlightAware ADS-B
Sun 15:33:11 41.1770 -71.4152 250° West 364 419 38,000  Level FlightAware ADS-B
Sun 15:33:47 41.1568 -71.4870 250° West 365 420 38,000  Level FlightAware ADS-B (ESTA / AGH)
Sun 15:34:39 41.1247 -71.6010 250° West 364 419 38,000  Level FlightAware ADS-B
Sun 15:35:20 41.1014 -71.6829 249° West 364 419 38,000  Level FlightAware ADS-B (ESTA / AGH)
Sun 15:35:50 41.0831 -71.7474 249° West 365 420 38,000  Level FlightAware ADS-B
Sun 15:36:06 41.0758 -71.7727 249° West 365 420 38,000  Level FlightAware ADS-B
Sun 15:36:29 41.0566 -71.8135 238° Southwest 371 427 38,000  Level FlightAware ADS-B (KSNC)
Sun 15:37:01 41.0149 -71.8772 229° Southwest 372 428 38,000  Level FlightAware ADS-B (ESTA / AGH)
Sun 15:37:33 40.9787 -71.9327 229° Southwest 373 429 38,000  Level FlightAware ADS-B (KBKF)
Sun 15:38:09 40.9565 -71.9665 229° Southwest 374 430 38,000  Level FlightAware ADS-B
Sun 15:38:41 40.9021 -72.0493 229° Southwest 375 432 38,000  Level FlightAware ADS-B
Sun 15:40:48 40.7574 -72.2689 229° Southwest 369 425 38,000  Level FlightAware ADS-B (KSNC)
Sun 15:41:30 40.7109 -72.3396 229° Southwest 367 422 38,000  Level FlightAware ADS-B (KSNC)
Sun 15:42:07 40.6703 -72.4011 229° Southwest 363 418 38,000  Level FlightAware ADS-B (KSNC)
Sun 15:42:50 40.6234 -72.4720 229° Southwest 363 418 38,000  Level FlightAware ADS-B (KSNC)
Sun 15:43:29 40.5796 -72.5381 229° Southwest 364 419 38,000  Level FlightAware ADS-B (KSNC)
Sun 15:44:10 40.5348 -72.6053 229° Southwest 366 421 38,000  Level FlightAware ADS-B (KSNC)
Sun 15:44:50 40.4909 -72.6713 229° Southwest 368 423 38,000  Level FlightAware ADS-B (KSNC)
Sun 15:45:22 40.4539 -72.7267 229° Southwest 366 421 38,000  Level FlightAware ADS-B (KWWD)
Sun 15:46:11 40.3991 -72.8085 229° Southwest 366 421 38,000  Level FlightAware ADS-B (KSNC)
Sun 15:46:50 40.3554 -72.8737 229° Southwest 366 421 38,000  Level FlightAware ADS-B (KSNC)
Sun 15:47:20 40.3222 -72.9233 229° Southwest 366 421 38,000  Level FlightAware ADS-B (KWWD)
Sun 15:47:50 40.2902 -72.9710 229° Southwest 371 427 38,000  Level FlightAware ADS-B (KSNC)
Sun 15:48:30 40.2425 -73.0415 228° Southwest 373 429 38,000  Level FlightAware ADS-B (KSNC)
Sun 15:49:02 40.2081 -73.0923 228° Southwest 372 428 38,000  Level FlightAware ADS-B (KWWD)
Sun 15:49:36 40.1681 -73.1513 228° Southwest 373 429 38,000  Level FlightAware ADS-B (KWWD)
Sun 15:50:10 40.1289 -73.2091 228° Southwest 373 429 38,000  Level FlightAware ADS-B (KSNC)
Sun 15:50:40 40.0937 -73.2596 228° Southwest 374 430 38,000  Level FlightAware ADS-B (KWWD)
Sun 15:51:11 40.0525 -73.3066 221° Southwest 380 437 38,000  Level FlightAware ADS-B (KSNC)
Sun 15:51:51 40.0146 -73.3494 221° Southwest 380 437 38,000  Level FlightAware ADS-B (KSNC)
Sun 15:52:25 39.9553 -73.4164 221° Southwest 379 436 38,000  Level FlightAware ADS-B (KSNC)
Sun 15:53:01 39.9075 -73.4699 221° Southwest 378 435 38,000  Level FlightAware ADS-B (KWWD)
Sun 15:53:43 39.8518 -73.5320 221° Southwest 378 435 38,000  Level FlightAware ADS-B (KWWD)
Sun 15:54:19 39.8039 -73.5854 221° Southwest 379 436 38,000  Level FlightAware ADS-B (KWWD)
Sun 15:54:50 39.7634 -73.6303 220° Southwest 381 438 38,000  Level FlightAware ADS-B (KSNC)
Sun 15:55:24 39.7174 -73.6813 220° Southwest 382 440 38,000  Level FlightAware ADS-B (KWWD)
Sun 15:56:01 39.6676 -73.7365 220° Southwest 381 438 38,000  Level FlightAware ADS-B (KWWD)
Sun 15:56:43 39.6119 -73.7980 220° Southwest 380 437 38,000  Level FlightAware ADS-B (KWWD)
Sun 15:57:19 39.5632 -73.8518 220° Southwest 380 437 38,000  Level FlightAware ADS-B (KWWD)
Sun 15:58:04 39.5029 -73.9180 220° Southwest 381 438 38,000  Level FlightAware ADS-B (KWWD)
Sun 15:58:44 39.4444 -73.9682 214° Southwest 386 444 38,000  Level FlightAware ADS-B (KWWD)
Sun 15:59:25 39.3824 -74.0194 213° Southwest 386 444 38,000  Level FlightAware ADS-B (KWWD)
Sun 16:00:02 39.3260 -74.0663 213° Southwest 387 445 38,000  Level FlightAware ADS-B (KWWD)
Sun 16:00:45 39.2621 -74.1193 213° Southwest 388 447 38,000  Level FlightAware ADS-B (KWWD)
Sun 16:01:25 39.2009 -74.1698 213° Southwest 382 440 38,000  Level FlightAware ADS-B (KWWD)
Sun 16:02:05 39.1418 -74.2186 213° Southwest 383 441 38,000  Level FlightAware ADS-B (KWWD)
Sun 16:02:45 39.0802 -74.2692 213° Southwest 384 442 38,000  Level FlightAware ADS-B (KWWD)
Sun 16:03:25 39.0191 -74.3193 213° Southwest 385 443 38,000  Level FlightAware ADS-B (KWWD)
Sun 16:04:05 38.9579 -74.3695 212° Southwest 386 444 38,000  Level FlightAware ADS-B (KWWD)
Sun 16:04:45 38.8967 -74.4196 212° Southwest 387 445 38,000  Level FlightAware ADS-B (KWWD)
Sun 16:05:22 38.8396 -74.4661 212° Southwest 388 447 38,000  Level FlightAware ADS-B (KWWD)
Sun 16:06:02 38.7778 -74.5163 212° Southwest 388 447 38,000  Level FlightAware ADS-B (KWWD)
Sun 16:06:44 38.7128 -74.5692 212° Southwest 388 447 38,000  Level FlightAware ADS-B (KWWD)
Sun 16:07:25 38.6500 -74.6201 212° Southwest 388 447 38,000  Level FlightAware ADS-B (KWWD)
Sun 16:08:05 38.5870 -74.6666 210° Southwest 392 451 38,000  Level FlightAware ADS-B (KWWD)
Sun 16:08:45 38.5194 -74.7031 203° Southwest 401 461 38,000  Level FlightAware ADS-B (KWWD)
Sun 16:09:26 38.4501 -74.7411 203° Southwest 401 461 38,000  Level FlightAware ADS-B (KWWD)
Sun 16:10:03 38.3863 -74.7760 203° Southwest 400 460 38,000  Level FlightAware ADS-B (KWWD)
Sun 16:10:45 38.3160 -74.8145 203° Southwest 401 461 38,000  Level FlightAware ADS-B (KWWD)
Sun 16:11:25 38.2463 -74.8525 203° Southwest 401 461 38,000  Level FlightAware ADS-B (KWWD)
Sun 16:12:05 38.1795 -74.8888 203° Southwest 401 461 38,000  Level FlightAware ADS-B (KWWD)
Sun 16:12:44 38.1124 -74.9252 203° Southwest 401 461 38,000  Level FlightAware ADS-B (KWWD)
Sun 16:13:26 38.0416 -74.9636 203° Southwest 403 464 38,000  Level FlightAware ADS-B (KWWD)
Sun 16:14:05 37.9741 -75.0001 203° Southwest 402 463 38,000  Level FlightAware ADS-B (KWWD)
Sun 16:14:47 37.9031 -75.0383 203° Southwest 401 461 38,000  Level FlightAware ADS-B (KWWD)
Sun 16:15:25 37.8375 -75.0735 203° Southwest 400 460 38,000  Level FlightAware ADS-B (KWWD)
Sun 16:16:07 37.7667 -75.1118 203° Southwest 401 461 38,000  Level FlightAware ADS-B (KWWD)
Sun 16:16:45 37.7013 -75.1470 203° Southwest 401 461 38,000  Level FlightAware ADS-B (KWWD)
Sun 16:17:27 37.6301 -75.1852 203° Southwest 403 464 38,000  Level FlightAware ADS-B (KWWD)
Sun 16:18:04 37.5651 -75.2199 203° Southwest 404 465 38,000  Level FlightAware ADS-B (KWWD)
Sun 16:18:47 37.4918 -75.2591 203° Southwest 406 467 38,000  Level FlightAware ADS-B (KWWD)
Sun 16:19:26 37.4234 -75.2956 203° Southwest 406 467 38,000  Level FlightAware ADS-B (KWWD)
Sun 16:20:07 37.3536 -75.3326 203° Southwest 406 467 38,000  Level FlightAware ADS-B (KWWD)
Sun 16:21:16 37.2363 -75.3949 203° Southwest 406 467 38,000  Level FlightAware ADS-B (KWWD)
Sun 16:22:51 37.0700 -75.4827 203° Southwest 402 463 38,000  Level FlightAware ADS-B (KWWD)
Sun 16:23:43 36.9989 -75.5217 203° Southwest 401 461 38,000  Level Washington Center
Sun 16:24:42 36.8842 -75.5814 203° Southwest 407 468 38,000  Level Washington Center
Sun 16:25:44 36.7756 -75.6361 202° Southwest 417 480 38,000  Level Washington Center
Sun 16:26:41 36.6692 -75.6903 202° Southwest 417 480 38,000  Level Washington Center
Sun 16:27:42 36.5628 -75.7472 203° Southwest 417 480 38,000  Level Washington Center
Sun 16:28:43 36.4542 -75.8036 203° Southwest 417 480 38,000  Level Washington Center
Sun 16:29:44 36.3497 -75.8603 204° Southwest 417 480 38,000  Level Washington Center
Sun 16:30:42 36.2411 -75.9139 202° Southwest 417 480 38,000  Level Washington Center
Sun 16:31:43 36.1325 -75.9675 202° Southwest 417 480 38,000  Level Washington Center
Sun 16:32:44 36.0258 -76.0261 204° Southwest 417 480 38,000  Level Washington Center
Sun 16:33:44 35.9381 -76.0667 201° Southwest 417 480 38,000  Level Washington Center
Sun 16:34:42 35.8083 -76.1300 202° Southwest 417 480 38,000  Level Washington Center
Sun 16:35:43 35.7017 -76.1881 204° Southwest 417 480 38,000  Level Washington Center
Sun 16:36:43 35.5931 -76.2433 202° Southwest 417 480 38,000  Level Washington Center
Sun 16:37:44 35.4864 -76.2961 202° Southwest 417 480 38,000  Level Washington Center
Sun 16:38:42 35.3775 -76.3511 202° Southwest 417 480 38,000  Level Washington Center
Sun 16:39:43 35.2686 -76.4086 203° Southwest 417 480 38,000  Level Washington Center
Sun 16:40:44 35.1575 -76.4583 200° South 417 480 38,000  Level Washington Center
Sun 16:41:42 35.0508 -76.5156 204° Southwest 417 480 38,000  Level Washington Center
Sun 16:42:42 34.9439 -76.5728 204° Southwest 417 480 38,000  Level Washington Center
Sun 16:43:42 34.8331 -76.6219 200° South 417 480 38,000  Level Washington Center
Sun 16:44:43 34.7261 -76.6814 205° Southwest 417 480 38,000  Level Washington Center
Sun 16:45:43 34.6150 -76.7303 200° South 417 480 38,000  Level Washington Center
Sun 16:46:44 34.5039 -76.7867 203° Southwest 417 480 38,000  Level Washington Center
Sun 16:47:42 34.4094 -76.8356 203° Southwest 417 480 38,000  Level Washington Center
Sun 16:48:43 34.2983 -76.8892 202° Southwest 422 486 38,000  Level Washington Center
Sun 16:49:43 34.1850 -76.9428 201° Southwest 427 491 38,000  Level Washington Center
Sun 16:50:44 34.0739 -76.9961 202° Southwest 433 498 38,000  Level Washington Center
Sun 16:51:44 33.9628 -77.0517 203° Southwest 433 498 38,000  Level Washington Center
Sun 16:54:07 33.6947 -77.1817 202° Southwest 430 495 38,000  Level Jacksonville Center
Sun 16:55:07 33.5842 -77.2311 200° South 430 495 38,000  Level Jacksonville Center
Sun 16:56:08 33.4719 -77.2856 202° Southwest 430 495 38,000  Level Jacksonville Center
Sun 16:57:09 33.3575 -77.3400 202° Southwest 430 495 38,000  Level Jacksonville Center
Sun 16:58:09 33.2472 -77.3942 202° Southwest 435 501 38,000  Level Jacksonville Center
Sun 16:59:09 33.1347 -77.4456 201° Southwest 435 501 38,000  Level Jacksonville Center
Sun 17:00:07 33.0222 -77.4994 202° Southwest 435 501 38,000  Level Jacksonville Center
Sun 17:01:08 32.9075 -77.5533 202° Southwest 441 507 38,000  Level Jacksonville Center
Sun 17:02:10 32.7931 -77.6072 202° Southwest 441 507 38,000  Level Jacksonville Center
Sun 17:03:07 32.6803 -77.6581 201° Southwest 441 507 38,000  Level Jacksonville Center
Sun 17:04:08 32.5678 -77.7139 203° Southwest 441 507 38,000  Level Jacksonville Center
Sun 17:05:08 32.4550 -77.7647 201° Southwest 441 507 38,000  Level Jacksonville Center
Sun 17:06:08 32.3403 -77.8178 201° Southwest 446 513 38,000  Level Jacksonville Center
Sun 17:07:09 32.2256 -77.8708 201° Southwest 446 513 38,000  Level Jacksonville Center
Sun 17:08:09 32.1131 -77.9286 204° Southwest 446 513 38,000  Level Jacksonville Center
Sun 17:09:08 31.9981 -77.9789 200° South 441 507 38,000  Level Jacksonville Center
Sun 17:10:08 31.8853 -78.0289 201° Southwest 441 507 38,000  Level Jacksonville Center
Sun 17:11:08 31.7706 -78.0839 202° Southwest 447 514 38,000  Level Jacksonville Center
Sun 17:12:09 31.6556 -78.1386 202° Southwest 447 514 38,000  Level Jacksonville Center
Sun 17:13:09 31.5406 -78.1883 200° South 441 507 38,000  Level Jacksonville Center
Sun 17:14:07 31.4278 -78.2428 202° Southwest 447 514 38,000  Level Jacksonville Center
Sun 17:15:08 31.3131 -78.2969 202° Southwest 447 514 38,000  Level Jacksonville Center
Sun 17:16:09 31.1958 -78.3489 201° Southwest 447 514 38,000  Level Jacksonville Center
Sun 17:17:07 31.0808 -78.4031 202° Southwest 447 514 38,000  Level Jacksonville Center
Sun 17:19:23 30.8083 -78.5214 200° South 439 505 38,000  Level Miami Center
Sun 17:20:23 30.6953 -78.5775 203° Southwest 444 511 38,000  Level Miami Center
Sun 17:21:23 30.5819 -78.6286 201° Southwest 444 511 38,000  Level Miami Center
Sun 17:22:23 30.4625 -78.6794 200° South 449 517 38,000  Level Miami Center
Sun 17:23:23 30.3453 -78.7303 201° Southwest 454 522 38,000  Level Miami Center
Sun 17:24:23 30.2258 -78.7811 200° South 454 522 38,000  Level Miami Center
Sun 17:25:23 30.1397 -78.8228 203° Southwest 445 512 38,000  Level Miami Center
Sun 17:26:23 30.0011 -78.8897 203° Southwest 440 506 38,000  Level Miami Center
Sun 17:27:23 29.8858 -78.9400 201° Southwest 445 512 38,000  Level Miami Center
Sun 17:28:23 29.7683 -78.9881 200° South 445 512 38,000  Level Miami Center
Sun 17:29:23 29.6528 -79.0358 200° South 451 519 38,000  Level Miami Center
Sun 17:30:23 29.5394 -79.0883 202° Southwest 445 512 38,000  Level Miami Center
Sun 17:31:23 29.4261 -79.1386 201° Southwest 445 512 38,000  Level Miami Center
Sun 17:37:18 28.7404 -79.4305 201° Southwest 445 512 38,000  Level FlightAware ADS-B
Sun 17:39:38 28.4685 -79.5469 201° Southwest 446 513 38,000  Level FlightAware ADS-B
Sun 17:40:26 28.3775 -79.5858 201° Southwest 446 513 38,000  Level FlightAware ADS-B
Sun 17:41:08 28.2947 -79.6210 201° Southwest 446 513 38,000  Level FlightAware ADS-B
Sun 17:41:48 28.2160 -79.6545 201° Southwest 446 513 38,000  Level FlightAware ADS-B
Sun 17:42:29 28.1419 -79.6860 201° Southwest 446 513 38,000  Level FlightAware ADS-B
Sun 17:43:08 28.0628 -79.7195 201° Southwest 446 513 38,000  Level FlightAware ADS-B
Sun 17:43:51 27.9815 -79.7539 200° South 445 512 38,000  Level FlightAware ADS-B
Sun 17:44:30 27.9061 -79.7858 201° Southwest 446 513 38,000  Level FlightAware ADS-B
Sun 17:45:10 27.8294 -79.8183 200° South 444 511 38,000  Level FlightAware ADS-B
Sun 17:45:52 27.7458 -79.8535 200° South 444 511 38,000  Level FlightAware ADS-B
Sun 17:46:37 27.6595 -79.8898 200° South 444 511 38,000  Level FlightAware ADS-B
Sun 17:47:17 27.5820 -79.9224 200° South 446 513 38,000  Level FlightAware ADS-B
Sun 17:48:02 27.4948 -79.9589 200° South 447 514 38,000  Level FlightAware ADS-B
Sun 17:49:02 27.3786 -80.0075 200° South 446 513 38,000  Level FlightAware ADS-B
Sun 17:49:43 27.3010 -80.0399 200° South 445 512 38,000  Level FlightAware ADS-B
Sun 17:50:23 27.2236 -80.0723 200° South 445 512 38,000  Level FlightAware ADS-B
Sun 17:51:02 27.1700 -80.0946 200° South 446 513 38,000  Level FlightAware ADS-B
Sun 17:51:44 27.0654 -80.1381 200° South 447 514 38,000  Level FlightAware ADS-B
Sun 17:52:14 27.0066 -80.1625 200° South 448 516 38,000  Level FlightAware ADS-B
Sun 17:53:25 26.8716 -80.2184 200° South 448 516 38,000  Level FlightAware ADS-B
Sun 17:57:58 26.3737 -80.5036 207° Southwest 443 510 38,000  Level FlightAware ADS-B
Sun 17:58:38 26.3090 -80.5601 218° Southwest 444 511 38,000  Level FlightAware ADS-B
Sun 17:59:22 26.2378 -80.6221 218° Southwest 442 509 38,000  Level FlightAware ADS-B
Sun 18:00:23 26.1575 -80.6967 218° Southwest 444 511 38,000  Level Miami Center
Sun 18:01:23 26.0611 -80.7792 218° Southwest 444 511 38,000  Level Miami Center
Sun 18:02:23 25.9650 -80.8639 218° Southwest 444 511 38,000  Level Miami Center
Sun 18:03:23 25.8667 -80.9481 218° Southwest 444 511 38,000  Level Miami Center
Sun 18:04:23 25.7703 -81.0303 218° Southwest 444 511 38,000  Level Miami Center
Sun 18:05:23 25.6739 -81.1144 218° Southwest 450 518 38,000  Level Miami Center
Sun 18:06:23 25.5753 -81.1961 217° Southwest 450 518 38,000 -100 Level Miami Center
Sun 18:07:23 25.4789 -81.2803 218° Southwest 450 518 37,800 -400 Descending Miami Center
Sun 18:08:23 25.3825 -81.3617 217° Southwest 450 518 37,200 -650 Descending Miami Center
Sun 18:09:23 25.2817 -81.4453 217° Southwest 456 525 36,500 -800 Descending Miami Center
Sun 18:10:23 25.1831 -81.5286 217° Southwest 456 525 35,600 -950 Descending Miami Center
Sun 18:11:23 25.0822 -81.6144 218° Southwest 456 525 34,600 -1,000 Descending Miami Center
Sun 18:12:23 24.9811 -81.6997 217° Southwest 456 525 33,600 -1,000 Descending Miami Center
Sun 18:13:23 24.8783 -81.7828 216° Southwest 456 525 32,600 -950 Descending Miami Center
Sun 18:14:23 24.7922 -81.8617 220° Southwest 445 512 31,700 -950 Descending Miami Center
Sun 18:15:23 24.6825 -81.9531 217° Southwest 450 518 30,700 -1,000 Descending Miami Center
Sun 18:16:23 24.5814 -82.0381 217° Southwest 455 524 29,700 -1,000 Descending Miami Center
Sun 18:17:23 24.4844 -82.1206 218° Southwest 455 524 28,700 -1,000 Descending Miami Center
Sun 18:18:23 24.3814 -82.2006 215° Southwest 455 524 27,700 -1,000 Descending Miami Center
Sun 18:19:23 24.2825 -82.2831 217° Southwest 450 518 26,700 -1,000 Descending Miami Center
Sun 18:20:23 24.1894 -82.3678 220° Southwest 450 518 25,700 -1,500 Descending Miami Center
Sun 18:21:23 24.0756 -82.4558 215° Southwest 459 528 23,700 -2,000 Descending Miami Center
Sun 18:23:00 23.8999 -82.4482 177° South  Level Estimated
Sun 18:30:00 23.1392 -82.4155 178° South  Level Estimated
Sun 18:31:00 23.0309 -82.4047 175° South  Level FlightAware Approximate
Sun 18:32:00 22.9891 -82.4091 180° South  Level Estimated
Sun 18:33:00 22.9891 -82.4091 180° South  Level Estimated
Sun 18:34:00 22.9891 -82.4091 180° South  Level Estimated
Sun 18:35:00 22.9891 -82.4091 180° South  Level Estimated
Sun 18:36:00 22.9891 -82.4091 180° South  Level Estimated
Sun 18:37:00 22.9891 -82.4091 180° South  Level Estimated
Sun 18:38:00 22.9891 -82.4091 180° South  Level Estimated
Sun 18:39:00 22.9891 -82.4091 180° South  Level Estimated
Sun 18:40:00 22.9891 -82.4091 180° South  Level Estimated
Sun 18:41:00 22.9891 -82.4091 180° South  Level Estimated
Sun 18:42:00 22.9891 -82.4091 180° South  Level Estimated
Sun 18:43:00 22.9891 -82.4091 180° South  Level Estimated
Sun 18:44:00 22.9891 -82.4091 180° South  Level Estimated
Sun 18:45:00 22.9891 -82.4091 180° South  Level Estimated
Sun 18:46:00 22.9891 -82.4091 180° South  Level Estimated
Sun 18:47:00 22.9891 -82.4091 180° South  Level Estimated
Sun 18:48:00 22.9891 -82.4091 180° South  Level Estimated
Sun 18:49:00 22.9891 -82.4091 180° South  Level Estimated
Sun 18:50:00 22.9891 -82.4091 180° South  Level Estimated

Login

Don't have an account? Register now (free) for customized features, flight alerts, and more!